Time;durP1;ratioP1;P1;durP2;ratioP2;P2;SDS_P1;SDS_P2;PMS_P1;PMS_P2;Temp;Humidity;BMP_temperature;BMP_pressure;BME280_temperature;BME280_humidity;BME280_pressure;Samples;Min_cycle;Max_cycle;Signal;HPM_P1;HPM_P2
2020/12/14 00:00:27;;;;;;;48.50;22.93;;;;;;;6.36;100.00;100426.66;5031654;28;20215;-76
2020/12/14 00:02:52;;;;;;;46.97;23.40;;;;;;;6.30;100.00;100433.03;5016603;28;20216;-76
2020/12/14 00:05:18;;;;;;;44.50;21.97;;;;;;;6.34;100.00;100428.78;5023006;28;20212;-76
2020/12/14 00:07:44;;;;;;;45.00;21.87;;;;;;;6.36;100.00;100432.06;5014252;28;20176;-75
2020/12/14 00:10:09;;;;;;;46.83;22.93;;;;;;;6.37;100.00;100428.28;4979356;28;20761;-75
2020/12/14 00:12:35;;;;;;;43.30;21.30;;;;;;;6.39;100.00;100431.53;4996019;28;20576;-76
2020/12/14 00:15:06;;;;;;;46.67;22.07;;;;;;;6.33;100.00;100435.25;4994915;28;20173;-76
2020/12/14 00:17:34;;;;;;;39.97;20.97;;;;;;;6.30;100.00;100443.81;4980200;28;20235;-76
2020/12/14 00:20:04;;;;;;;48.30;21.33;;;;;;;6.27;100.00;100441.63;4996231;28;20217;-76
2020/12/14 00:22:31;;;;;;;43.23;20.40;;;;;;;6.38;100.00;100449.59;4995156;28;20763;-76
2020/12/14 00:24:58;;;;;;;43.83;20.93;;;;;;;6.21;100.00;100450.72;4979309;28;20244;-73
2020/12/14 00:27:23;;;;;;;42.90;20.23;;;;;;;6.20;100.00;100449.09;5009946;28;20216;-76
2020/12/14 00:29:51;;;;;;;40.10;20.10;;;;;;;6.10;100.00;100442.72;5010785;28;20219;-75
2020/12/14 00:32:17;;;;;;;37.00;19.67;;;;;;;6.15;100.00;100438.22;5014338;28;20772;-75
2020/12/14 00:34:43;;;;;;;41.63;19.87;;;;;;;6.08;100.00;100440.31;4982391;28;20179;-75
2020/12/14 00:37:08;;;;;;;40.23;20.23;;;;;;;6.11;100.00;100447.88;4982411;28;20227;-75
2020/12/14 00:39:37;;;;;;;42.73;20.57;;;;;;;6.11;100.00;100445.19;4999814;28;20315;-75
2020/12/14 00:42:03;;;;;;;39.67;19.87;;;;;;;6.25;100.00;100455.38;5015379;28;20299;-75
2020/12/14 00:44:29;;;;;;;42.47;20.00;;;;;;;6.15;100.00;100446.31;4999386;28;20213;-75
2020/12/14 00:46:54;;;;;;;37.63;19.23;;;;;;;6.33;100.00;100437.94;5035304;28;20220;-75
2020/12/14 00:49:20;;;;;;;42.07;19.20;;;;;;;6.25;100.00;100435.69;5036299;28;20208;-75
2020/12/14 00:51:46;;;;;;;38.97;18.70;;;;;;;6.28;100.00;100441.38;5019178;28;20838;-75
2020/12/14 00:54:15;;;;;;;40.73;20.60;;;;;;;6.30;100.00;100454.59;5032644;28;20169;-74
2020/12/14 00:56:41;;;;;;;34.77;19.20;;;;;;;6.50;100.00;100452.16;4993285;28;20217;-75
2020/12/14 00:59:06;;;;;;;33.93;18.30;;;;;;;6.35;100.00;100446.59;4995537;28;20199;-75
2020/12/14 01:01:32;;;;;;;37.00;19.03;;;;;;;6.30;100.00;100454.59;5010748;28;20789;-75
2020/12/14 01:03:57;;;;;;;33.63;18.73;;;;;;;6.34;100.00;100434.19;5027927;28;20216;-75
2020/12/14 01:06:23;;;;;;;31.37;18.53;;;;;;;6.37;100.00;100422.88;4993401;28;20243;-75
2020/12/14 01:08:50;;;;;;;33.87;18.93;;;;;;;6.26;100.00;100407.63;4977899;28;20633;-75
2020/12/14 01:11:21;;;;;;;33.37;19.20;;;;;;;6.34;100.00;100412.63;4994850;28;20401;-75
2020/12/14 01:13:47;;;;;;;31.97;18.27;;;;;;;6.44;100.00;100412.72;4994848;28;20220;-75
2020/12/14 01:16:13;;;;;;;32.17;18.50;;;;;;;6.34;100.00;100407.22;5010312;28;20240;-75
2020/12/14 01:18:38;;;;;;;36.67;19.43;;;;;;;6.38;100.00;100394.84;4978622;28;20208;-76
2020/12/14 01:21:04;;;;;;;33.77;18.47;;;;;;;6.32;100.00;100393.16;5010366;28;20220;-75
2020/12/14 01:23:30;;;;;;;34.67;18.83;;;;;;;6.42;100.00;100393.28;4994413;28;20567;-75
2020/12/14 01:25:55;;;;;;;32.83;17.97;;;;;;;6.46;100.00;100370.94;4997552;28;20220;-75
2020/12/14 01:28:21;;;;;;;31.03;18.20;;;;;;;6.21;100.00;100367.94;4994326;28;20272;-75
2020/12/14 01:30:49;;;;;;;30.87;17.13;;;;;;;6.21;100.00;100376.03;4994017;28;20217;-75
2020/12/14 01:33:15;;;;;;;29.17;16.37;;;;;;;6.19;100.00;100366.56;4995402;28;20251;-75
2020/12/14 01:35:44;;;;;;;28.77;16.90;;;;;;;6.19;100.00;100361.16;5010850;28;20705;-75
2020/12/14 01:38:12;;;;;;;32.33;17.73;;;;;;;6.24;100.00;100364.72;5012160;28;20220;-75
2020/12/14 01:40:40;;;;;;;31.57;16.63;;;;;;;6.11;100.00;100358.91;4977899;28;20224;-75
2020/12/14 01:43:06;;;;;;;29.37;17.47;;;;;;;6.26;100.00;100375.28;4962031;28;20187;-75
2020/12/14 01:45:33;;;;;;;29.33;16.37;;;;;;;6.35;100.00;100377.28;4993033;28;20606;-75
2020/12/14 01:48:03;;;;;;;28.50;17.17;;;;;;;6.28;100.00;100373.13;4979444;28;20260;-75
2020/12/14 01:50:29;;;;;;;28.00;16.90;;;;;;;6.14;100.00;100374.59;4978030;28;20224;-76
2020/12/14 01:52:59;;;;;;;28.60;16.57;;;;;;;6.08;100.00;100367.53;4994725;28;20917;-75
2020/12/14 01:55:28;;;;;;;27.13;15.90;;;;;;;6.23;100.00;100367.72;5007885;28;20289;-75
2020/12/14 01:57:56;;;;;;;27.70;16.20;;;;;;;6.14;100.00;100369.22;5000279;28;20176;-76
2020/12/14 02:00:22;;;;;;;25.63;15.73;;;;;;;6.07;100.00;100357.78;5009483;28;20205;-75
2020/12/14 02:02:48;;;;;;;28.70;16.33;;;;;;;6.01;100.00;100358.78;4993942;28;20590;-75
2020/12/14 02:05:13;;;;;;;25.73;16.17;;;;;;;6.00;100.00;100362.53;4976965;28;20216;-75
2020/12/14 02:07:39;;;;;;;28.70;15.47;;;;;;;6.00;100.00;100357.16;4978112;28;20184;-76
2020/12/14 02:10:07;;;;;;;28.63;16.07;;;;;;;5.87;100.00;100362.91;5012736;28;20204;-75
2020/12/14 02:12:35;;;;;;;26.97;15.77;;;;;;;5.80;100.00;100361.47;4994247;28;20299;-75
2020/12/14 02:15:01;;;;;;;23.23;15.07;;;;;;;5.74;100.00;100341.72;4978503;28;20185;-76
2020/12/14 02:17:29;;;;;;;25.83;15.37;;;;;;;5.75;100.00;100347.94;5009837;28;20226;-76
2020/12/14 02:19:55;;;;;;;26.33;15.60;;;;;;;5.64;100.00;100345.28;4993682;28;20193;-75
2020/12/14 02:22:27;;;;;;;25.37;15.23;;;;;;;5.59;100.00;100354.13;4958918;28;20213;-75
2020/12/14 02:24:58;;;;;;;24.03;14.43;;;;;;;5.68;100.00;100357.19;4990805;28;20575;-75
2020/12/14 02:27:24;;;;;;;24.17;14.47;;;;;;;5.56;100.00;100364.59;5027259;28;20785;-76
2020/12/14 02:29:50;;;;;;;23.30;14.83;;;;;;;5.57;100.00;100360.84;5029521;28;20254;-75
2020/12/14 02:32:16;;;;;;;23.37;14.13;;;;;;;5.50;100.00;100366.38;5030310;28;20227;-76
2020/12/14 02:34:44;;;;;;;24.03;14.43;;;;;;;5.60;100.00;100354.94;4996810;28;20581;-75
2020/12/14 02:37:10;;;;;;;23.73;14.17;;;;;;;5.56;100.00;100351.13;4996082;28;20238;-76
2020/12/14 02:39:37;;;;;;;25.07;15.07;;;;;;;5.59;100.00;100347.94;4997160;28;20343;-75
2020/12/14 02:42:13;;;;;;;25.53;15.57;;;;;;;5.57;100.00;100344.69;5028895;28;20745;-74
2020/12/14 02:44:39;;;;;;;27.57;15.73;;;;;;;5.52;100.00;100347.28;4996886;28;20591;-73
2020/12/14 02:47:05;;;;;;;27.13;15.40;;;;;;;5.43;100.00;100338.81;5012457;28;20220;-75
2020/12/14 02:49:31;;;;;;;26.77;14.83;;;;;;;5.55;100.00;100336.00;5013124;28;20196;-75
2020/12/14 02:51:56;;;;;;;29.37;15.43;;;;;;;5.57;100.00;100331.22;5028461;28;20343;-75
2020/12/14 02:54:24;;;;;;;26.10;16.40;;;;;;;5.49;100.00;100342.38;4996631;28;20180;-74
2020/12/14 02:56:53;;;;;;;25.50;15.57;;;;;;;5.48;100.00;100330.00;5011777;28;20216;-76
2020/12/14 02:59:19;;;;;;;29.70;16.07;;;;;;;5.42;100.00;100337.19;5030384;28;20208;-76
2020/12/14 03:01:45;;;;;;;25.07;16.10;;;;;;;5.35;100.00;100319.56;5012430;28;20216;-75
2020/12/14 03:04:11;;;;;;;24.67;14.87;;;;;;;5.31;100.00;100313.06;5012759;28;20211;-74
2020/12/14 03:06:36;;;;;;;26.23;15.43;;;;;;;5.33;100.00;100316.31;5028488;28;20223;-74
2020/12/14 03:09:02;;;;;;;25.67;15.30;;;;;;;5.37;100.00;100317.44;5030580;28;20635;-74
2020/12/14 03:11:28;;;;;;;27.50;16.47;;;;;;;5.28;100.00;100316.22;5028123;28;20226;-74
2020/12/14 03:13:53;;;;;;;23.60;14.50;;;;;;;5.27;100.00;100317.28;5012512;28;20179;-75
2020/12/14 03:16:19;;;;;;;26.23;15.00;;;;;;;5.34;100.00;100317.94;4995628;28;20224;-75
2020/12/14 03:18:45;;;;;;;26.20;15.43;;;;;;;5.35;100.00;100319.56;5013041;28;20208;-75
2020/12/14 03:21:13;;;;;;;25.97;15.87;;;;;;;5.25;100.00;100311.34;4996626;28;20234;-75
2020/12/14 03:23:41;;;;;;;21.07;15.03;;;;;;;5.28;100.00;100312.75;5012911;28;20587;-75
2020/12/14 03:26:06;;;;;;;25.87;15.17;;;;;;;5.32;100.00;100303.09;5008347;28;20213;-75
2020/12/14 03:28:32;;;;;;;22.73;14.60;;;;;;;5.31;100.00;100310.38;5012764;28;20177;-75
2020/12/14 03:30:58;;;;;;;22.33;14.20;;;;;;;5.23;100.00;100308.06;5012172;28;20747;-74
2020/12/14 03:33:26;;;;;;;23.77;14.73;;;;;;;5.23;100.00;100304.56;5015396;28;20185;-74
2020/12/14 03:35:51;;;;;;;22.07;14.40;;;;;;;5.31;100.00;100302.28;5009904;28;20220;-74
2020/12/14 03:38:17;;;;;;;21.87;14.40;;;;;;;5.29;100.00;100288.22;5014710;28;20979;-75
2020/12/14 03:40:43;;;;;;;22.77;13.97;;;;;;;5.27;100.00;100290.38;5023846;28;20220;-75
2020/12/14 03:43:08;;;;;;;21.27;13.63;;;;;;;5.33;100.00;100292.09;5007070;28;20188;-76
2020/12/14 03:45:34;;;;;;;19.43;13.00;;;;;;;5.22;100.00;100297.53;5022120;28;20236;-76
2020/12/14 03:47:59;;;;;;;20.57;12.90;;;;;;;5.46;100.00;100291.75;5020066;28;20191;-75
2020/12/14 03:50:27;;;;;;;19.30;13.23;;;;;;;5.30;100.00;100295.25;5032798;28;20204;-75
2020/12/14 03:52:53;;;;;;;18.13;12.63;;;;;;;5.32;100.00;100293.13;5000495;28;20669;-75
2020/12/14 03:55:18;;;;;;;17.40;12.00;;;;;;;5.35;100.00;100298.84;5032374;28;20184;-75
2020/12/14 03:57:46;;;;;;;17.87;11.97;;;;;;;5.55;100.00;100290.22;5016151;28;20176;-74
2020/12/14 04:00:16;;;;;;;17.60;12.37;;;;;;;5.56;100.00;100299.94;5015660;28;20215;-75
2020/12/14 04:02:43;;;;;;;18.27;11.87;;;;;;;5.54;100.00;100285.91;5033700;28;20614;-74
2020/12/14 04:05:09;;;;;;;16.43;10.83;;;;;;;5.37;100.00;100285.13;5005516;28;20228;-74
2020/12/14 04:07:34;;;;;;;15.77;11.20;;;;;;;5.50;100.00;100274.81;4995693;28;20177;-75
2020/12/14 04:10:00;;;;;;;15.57;11.03;;;;;;;5.37;100.00;100279.75;5028603;28;20242;-74
2020/12/14 04:12:25;;;;;;;16.23;10.70;;;;;;;5.36;100.00;100278.13;4997875;28;20212;-75
2020/12/14 04:14:51;;;;;;;15.10;10.80;;;;;;;5.28;100.00;100286.63;4997925;28;20187;-74
2020/12/14 04:17:17;;;;;;;14.27;10.47;;;;;;;5.32;100.00;100286.94;5030916;28;20243;-74
2020/12/14 04:19:43;;;;;;;14.27;10.10;;;;;;;5.49;100.00;100277.75;5015593;28;20204;-74
2020/12/14 04:22:13;;;;;;;15.13;10.07;;;;;;;5.36;100.00;100287.00;4998771;28;20274;-74
2020/12/14 04:24:39;;;;;;;13.27;10.50;;;;;;;5.48;100.00;100292.31;5014603;28;20724;-74
2020/12/14 04:27:07;;;;;;;12.07;9.43;;;;;;;5.40;100.00;100290.00;5014472;28;20247;-75
2020/12/14 04:29:33;;;;;;;15.37;10.07;;;;;;;5.47;100.00;100296.03;5031586;28;20278;-75
2020/12/14 04:32:03;;;;;;;12.03;9.23;;;;;;;5.56;100.00;100281.91;4998755;28;20223;-75
2020/12/14 04:34:29;;;;;;;11.77;9.07;;;;;;;5.67;100.00;100290.94;4999590;28;20627;-74
2020/12/14 04:36:54;;;;;;;11.37;8.57;;;;;;;5.60;100.00;100290.28;5014944;28;20224;-74
2020/12/14 04:39:23;;;;;;;12.33;9.23;;;;;;;5.61;100.00;100281.16;5046072;28;20212;-77
2020/12/14 04:41:57;;;;;;;12.27;8.90;;;;;;;5.65;100.00;100277.72;5026611;28;20266;-75
2020/12/14 04:44:25;;;;;;;11.80;8.67;;;;;;;5.62;100.00;100280.09;5014790;28;20773;-74
2020/12/14 04:46:51;;;;;;;11.03;8.77;;;;;;;5.55;100.00;100290.22;4998214;28;20215;-75
2020/12/14 04:49:17;;;;;;;11.50;8.43;;;;;;;5.68;100.00;100281.78;4997636;28;20207;-75
2020/12/14 04:51:45;;;;;;;14.47;8.13;;;;;;;5.56;100.00;100281.09;5010617;28;20213;-75
2020/12/14 04:54:11;;;;;;;11.37;7.87;;;;;;;5.68;100.00;100273.69;4980196;28;20173;-75
2020/12/14 04:56:40;;;;;;;9.77;8.03;;;;;;;5.54;100.00;100275.94;4978328;28;20235;-74
2020/12/14 04:59:07;;;;;;;13.80;8.00;;;;;;;5.57;100.00;100264.69;4995893;28;20205;-75
2020/12/14 05:01:35;;;;;;;10.80;7.87;;;;;;;5.58;100.00;100260.09;4990057;28;20214;-75
2020/12/14 05:04:06;;;;;;;9.43;7.37;;;;;;;5.55;100.00;100271.38;4999474;28;20217;-75
2020/12/14 05:06:50;;;;;;;9.73;7.27;;;;;;;5.56;100.00;100270.31;4994827;28;20225;-76
2020/12/14 05:09:20;;;;;;;8.80;7.50;;;;;;;5.67;100.00;100258.63;5013822;28;20209;-76
2020/12/14 05:11:45;;;;;;;9.40;6.77;;;;;;;5.75;100.00;100257.16;4997202;28;20217;-75
2020/12/14 05:14:18;;;;;;;9.53;7.53;;;;;;;5.75;100.00;100261.72;4994068;28;20631;-75
2020/12/14 05:16:44;;;;;;;10.73;7.67;;;;;;;5.79;100.00;100262.84;4992557;28;20536;-75
2020/12/14 05:19:17;;;;;;;8.43;7.30;;;;;;;5.82;100.00;100257.78;4991221;28;20332;-74
2020/12/14 05:21:52;;;;;;;9.20;7.43;;;;;;;5.73;100.00;100261.13;4990980;28;20260;-75
2020/12/14 05:24:32;;;;;;;8.50;7.07;;;;;;;5.74;100.00;100258.19;4988072;28;20219;-76
2020/12/14 05:26:59;;;;;;;9.90;7.37;;;;;;;5.77;100.00;100259.59;5006025;28;20335;-76
2020/12/14 05:29:31;;;;;;;9.77;7.10;;;;;;;5.89;100.00;100242.22;4978516;28;20617;-75
2020/12/14 05:32:10;;;;;;;7.73;6.93;;;;;;;5.89;100.00;100244.91;4994517;28;20228;-76
2020/12/14 05:34:37;;;;;;;9.63;6.97;;;;;;;5.81;100.00;100250.75;4979198;28;20713;-74
2020/12/14 05:37:05;;;;;;;9.87;6.70;;;;;;;5.85;100.00;100238.41;5010410;28;20759;-77
2020/12/14 05:39:31;;;;;;;8.27;6.90;;;;;;;5.87;100.00;100243.53;4996335;28;20201;-77
2020/12/14 05:42:18;;;;;;;8.60;7.13;;;;;;;5.90;100.00;100246.56;5018297;28;20223;-77
2020/12/14 05:44:44;;;;;;;8.77;7.00;;;;;;;5.90;100.00;100243.84;5016811;28;20713;-77
2020/12/14 05:47:26;;;;;;;8.23;6.90;;;;;;;5.93;100.00;100243.31;5031330;28;20224;-77
2020/12/14 05:49:52;;;;;;;9.60;6.93;;;;;;;5.87;100.00;100244.34;5030383;28;20221;-76
2020/12/14 05:52:19;;;;;;;9.43;7.17;;;;;;;5.75;100.00;100249.06;5004691;28;21226;-75
2020/12/14 05:54:52;;;;;;;8.40;6.80;;;;;;;5.93;100.00;100243.31;5022772;28;20227;-76
2020/12/14 05:57:26;;;;;;;10.00;7.20;;;;;;;5.99;100.00;100247.72;4989870;28;20223;-76
2020/12/14 05:59:52;;;;;;;8.77;7.07;;;;;;;5.90;100.00;100254.63;5027428;28;20284;-75
2020/12/14 06:02:20;;;;;;;9.60;6.93;;;;;;;5.94;100.00;100247.66;5000021;28;20246;-75
2020/12/14 06:04:46;;;;;;;8.67;7.43;;;;;;;5.98;100.00;100243.41;4977329;28;20201;-75
2020/12/14 06:07:13;;;;;;;10.37;8.20;;;;;;;5.93;100.00;100254.09;5027719;28;20231;-75
2020/12/14 06:09:39;;;;;;;8.20;7.37;;;;;;;5.94;100.00;100242.28;5013593;28;20212;-75
2020/12/14 06:12:07;;;;;;;10.03;6.70;;;;;;;6.09;100.00;100241.63;4977774;28;20220;-74
2020/12/14 06:14:38;;;;;;;7.37;6.63;;;;;;;5.90;100.00;100240.34;5027425;28;20180;-76
2020/12/14 06:17:08;;;;;;;8.70;6.77;;;;;;;5.83;100.00;100245.91;5001880;28;20259;-75
2020/12/14 06:19:36;;;;;;;8.47;6.90;;;;;;;5.81;100.00;100245.34;5029840;28;20196;-75
2020/12/14 06:22:06;;;;;;;7.40;6.53;;;;;;;5.89;100.00;100242.22;5005253;28;20267;-76
2020/12/14 06:24:35;;;;;;;7.33;6.17;;;;;;;5.79;100.00;100244.81;4998330;28;20220;-77
2020/12/14 06:27:09;;;;;;;7.80;6.93;;;;;;;5.88;100.00;100251.38;4997225;28;20220;-77
2020/12/14 06:29:36;;;;;;;8.67;6.47;;;;;;;5.95;100.00;100251.16;5009555;28;20563;-77
2020/12/14 06:32:02;;;;;;;7.43;6.70;;;;;;;5.84;100.00;100246.72;5014053;28;20228;-78
2020/12/14 06:34:30;;;;;;;8.87;6.43;;;;;;;5.90;100.00;100238.47;5047588;28;20176;-77
2020/12/14 06:36:56;;;;;;;7.57;6.20;;;;;;;5.82;100.00;100241.63;5014800;28;20236;-77
2020/12/14 06:39:34;;;;;;;8.73;6.70;;;;;;;5.80;100.00;100232.94;4975600;28;20226;-76
2020/12/14 06:42:11;;;;;;;8.10;6.57;;;;;;;5.86;100.00;100231.97;5017075;28;20224;-76
2020/12/14 06:45:09;;;;;;;7.93;6.30;;;;;;;5.89;100.00;100241.41;5010595;28;20219;-76
2020/12/14 06:47:42;;;;;;;6.93;6.23;;;;;;;5.93;100.00;100232.53;5009605;28;20224;-76
2020/12/14 06:50:28;;;;;;;8.87;7.20;;;;;;;6.06;100.00;100237.53;4991943;28;20686;-76
2020/12/14 06:52:54;;;;;;;8.30;6.53;;;;;;;6.00;100.00;100238.56;4994609;28;20185;-76
2020/12/14 06:55:42;;;;;;;7.47;6.50;;;;;;;5.94;100.00;100234.19;4994358;28;20255;-75
2020/12/14 06:58:09;;;;;;;7.90;6.30;;;;;;;6.05;100.00;100230.53;5006343;28;20191;-75
2020/12/14 07:00:37;;;;;;;7.80;6.33;;;;;;;6.10;100.00;100210.91;4995903;28;20294;-74
2020/12/14 07:03:10;;;;;;;8.37;6.70;;;;;;;5.92;100.00;100220.16;4997588;28;20583;-75
2020/12/14 07:05:36;;;;;;;7.20;6.37;;;;;;;5.98;100.00;100221.84;5011950;28;20290;-73
2020/12/14 07:08:02;;;;;;;7.73;6.33;;;;;;;6.11;100.00;100217.94;5031198;28;20189;-73
2020/12/14 07:10:33;;;;;;;6.87;6.17;;;;;;;6.11;100.00;100224.13;5016365;28;20234;-74
2020/12/14 07:12:59;;;;;;;7.63;5.63;;;;;;;6.17;100.00;100215.03;5001233;28;20192;-74
2020/12/14 07:15:32;;;;;;;6.70;5.90;;;;;;;6.18;100.00;100219.34;5016056;28;20235;-74
2020/12/14 07:18:03;;;;;;;6.47;5.70;;;;;;;6.18;100.00;100220.16;5017372;28;20184;-74
2020/12/14 07:20:32;;;;;;;6.67;5.87;;;;;;;6.24;100.00;100223.72;5000798;28;20697;-74
2020/12/14 07:23:05;;;;;;;7.90;6.10;;;;;;;6.11;100.00;100226.03;5000342;28;20188;-74
2020/12/14 07:25:33;;;;;;;9.90;5.93;;;;;;;6.14;100.00;100227.13;5000578;28;20307;-75
2020/12/14 07:28:04;;;;;;;7.40;5.67;;;;;;;6.13;100.00;100227.38;4999886;28;20180;-74
2020/12/14 07:30:30;;;;;;;7.47;6.47;;;;;;;6.16;100.00;100219.59;5032464;28;20597;-74
2020/12/14 07:32:59;;;;;;;6.67;5.50;;;;;;;6.24;100.00;100223.72;5033217;28;20187;-75
2020/12/14 07:35:27;;;;;;;6.90;5.97;;;;;;;6.08;100.00;100207.66;5016190;28;20704;-74
2020/12/14 07:37:58;;;;;;;6.63;5.63;;;;;;;6.13;100.00;100212.03;4999893;28;20180;-74
2020/12/14 07:40:26;;;;;;;6.17;5.57;;;;;;;6.25;100.00;100215.38;5032239;28;20227;-74
2020/12/14 07:42:51;;;;;;;6.90;5.50;;;;;;;6.23;100.00;100214.03;5016671;28;20207;-73
2020/12/14 07:45:25;;;;;;;7.03;5.17;;;;;;;6.35;100.00;100218.16;5031595;28;20212;-74
2020/12/14 07:47:52;;;;;;;6.10;5.27;;;;;;;6.36;100.00;100210.91;5017113;28;20180;-74
2020/12/14 07:50:23;;;;;;;6.00;5.10;;;;;;;6.43;100.00;100215.03;4999829;28;20696;-73
2020/12/14 07:52:50;;;;;;;5.97;5.23;;;;;;;6.32;100.00;100213.31;4999952;28;20214;-74
2020/12/14 07:55:18;;;;;;;6.13;5.40;;;;;;;6.47;100.00;100213.44;5015656;28;20535;-74
2020/12/14 07:57:45;;;;;;;7.40;5.47;;;;;;;6.31;100.00;100214.34;5026327;28;20188;-74
2020/12/14 08:00:21;;;;;;;5.40;4.63;;;;;;;6.33;100.00;100227.59;4995504;28;20208;-74
2020/12/14 08:02:49;;;;;;;6.37;5.17;;;;;;;6.42;100.00;100226.06;4980708;28;20191;-74
2020/12/14 08:05:19;;;;;;;5.37;4.77;;;;;;;6.28;100.00;100233.75;4995556;28;20209;-74
2020/12/14 08:08:00;;;;;;;6.43;5.00;;;;;;;6.38;100.00;100243.81;4996569;28;20183;-74
2020/12/14 08:13:09;;;;;;;5.50;4.93;;;;;;;6.30;100.00;100234.31;5012776;28;20177;-74
2020/12/14 08:15:35;;;;;;;5.43;4.83;;;;;;;6.39;100.00;100237.34;4979843;28;20342;-74
2020/12/14 08:18:02;;;;;;;6.83;4.50;;;;;;;6.52;100.00;100233.19;4979924;28;20271;-74
2020/12/14 08:20:32;;;;;;;5.90;4.60;;;;;;;6.36;100.00;100221.69;4994035;28;20307;-74
2020/12/14 08:22:58;;;;;;;4.60;4.20;;;;;;;6.53;100.00;100218.59;4980185;28;20239;-74
2020/12/14 08:25:26;;;;;;;4.90;4.40;;;;;;;6.58;100.00;100220.56;5014108;28;20228;-73
2020/12/14 08:28:05;;;;;;;5.20;4.50;;;;;;;6.65;100.00;100208.47;5025009;28;20211;-74
2020/12/14 08:30:31;;;;;;;4.97;4.47;;;;;;;6.70;99.57;100202.28;5012034;28;20579;-74
2020/12/14 08:33:12;;;;;;;5.83;4.00;;;;;;;6.74;99.19;100198.81;4995792;28;20188;-74
2020/12/14 08:35:45;;;;;;;5.00;4.50;;;;;;;6.82;98.69;100211.84;4994297;28;20765;-74
2020/12/14 08:38:19;;;;;;;5.17;4.33;;;;;;;6.88;98.57;100214.28;4996867;28;20276;-75
2020/12/14 08:40:55;;;;;;;5.03;4.00;;;;;;;6.92;97.64;100215.44;4979190;28;20232;-74
2020/12/14 08:43:22;;;;;;;5.73;4.40;;;;;;;6.91;98.55;100210.28;4995610;28;20192;-74
2020/12/14 08:46:08;;;;;;;4.40;3.90;;;;;;;7.06;98.38;100213.09;4979002;28;20286;-76
2020/12/14 08:48:45;;;;;;;5.37;3.80;;;;;;;7.01;98.39;100218.44;4979056;28;20189;-74
2020/12/14 08:51:16;;;;;;;4.97;3.90;;;;;;;6.97;97.48;100220.03;5010879;28;20278;-75
2020/12/14 08:53:42;;;;;;;5.00;3.80;;;;;;;7.06;97.92;100221.19;4996581;28;20223;-74
2020/12/14 08:56:11;;;;;;;4.47;3.60;;;;;;;7.08;97.67;100230.63;4984350;28;20255;-75
2020/12/14 08:58:53;;;;;;;4.37;3.93;;;;;;;6.95;97.47;100217.59;4995044;28;20287;-75
2020/12/14 09:01:25;;;;;;;4.53;3.70;;;;;;;7.02;97.30;100222.78;5011033;28;20267;-74
2020/12/14 09:03:57;;;;;;;3.87;3.47;;;;;;;7.08;97.22;100211.75;5011285;28;20239;-75
2020/12/14 09:06:33;;;;;;;4.73;3.67;;;;;;;7.27;97.13;100209.41;5010759;28;20271;-75
2020/12/14 09:09:10;;;;;;;4.43;3.37;;;;;;;7.13;98.20;100210.97;5013311;28;20727;-74
2020/12/14 09:11:39;;;;;;;4.03;3.60;;;;;;;7.27;97.76;100212.97;5011491;28;20224;-77
2020/12/14 09:14:09;;;;;;;4.63;3.27;;;;;;;7.28;98.30;100216.47;5023269;28;20626;-74
2020/12/14 09:16:35;;;;;;;4.47;3.30;;;;;;;7.40;98.42;100215.19;5050235;28;20231;-74
2020/12/14 09:19:03;;;;;;;3.50;3.17;;;;;;;7.67;97.46;100211.25;5033164;28;20196;-74
2020/12/14 09:21:32;;;;;;;3.27;2.87;;;;;;;7.47;98.25;100210.34;5041333;28;20274;-76
2020/12/14 09:24:15;;;;;;;4.20;2.90;;;;;;;7.37;98.35;100213.00;5001325;28;20205;-76
2020/12/14 09:26:49;;;;;;;3.47;3.00;;;;;;;7.22;99.34;100212.13;5006005;28;20563;-75
2020/12/14 09:29:14;;;;;;;3.57;2.80;;;;;;;7.18;100.00;100206.41;5003067;28;20245;-75
2020/12/14 09:31:50;;;;;;;3.40;3.03;;;;;;;7.34;99.77;100206.25;4978721;28;20256;-75
2020/12/14 09:34:16;;;;;;;3.80;2.63;;;;;;;7.37;99.86;100205.69;4994669;28;20183;-75
2020/12/14 09:36:42;;;;;;;4.00;2.80;;;;;;;7.45;99.63;100205.19;5009609;28;20224;-75
2020/12/14 09:39:12;;;;;;;5.33;3.10;;;;;;;7.59;100.00;100200.94;4994448;28;20263;-75
2020/12/14 09:41:37;;;;;;;2.73;2.50;;;;;;;7.56;99.53;100204.16;5009534;28;20225;-76
2020/12/14 09:44:03;;;;;;;3.87;2.80;;;;;;;7.59;98.92;100214.44;5010736;28;20208;-76
2020/12/14 09:46:31;;;;;;;3.67;2.57;;;;;;;7.61;99.05;100209.59;5009548;28;20900;-74
2020/12/14 09:48:57;;;;;;;3.70;2.30;;;;;;;7.66;98.21;100203.41;5011116;28;20205;-75
2020/12/14 09:51:28;;;;;;;2.50;2.30;;;;;;;7.65;96.49;100218.78;4993945;28;20243;-74
2020/12/14 09:53:55;;;;;;;3.00;2.30;;;;;;;7.44;98.57;100211.69;4993909;28;20275;-75
2020/12/14 09:56:23;;;;;;;3.87;2.20;;;;;;;7.47;98.39;100207.63;5010064;28;20580;-75
2020/12/14 09:58:51;;;;;;;3.87;2.20;;;;;;;7.67;97.62;100208.53;5004512;28;20711;-75
2020/12/14 10:01:17;;;;;;;5.53;2.10;;;;;;;7.85;95.00;100200.75;4996467;28;20429;-75
2020/12/14 10:03:45;;;;;;;4.60;2.20;;;;;;;7.91;95.32;100198.88;5013674;28;20443;-75
2020/12/14 10:06:16;;;;;;;3.77;2.30;;;;;;;8.05;94.65;100195.41;4996149;28;20323;-75
2020/12/14 10:08:42;;;;;;;2.63;2.03;;;;;;;8.07;95.35;100207.59;4997406;28;20199;-75
2020/12/14 10:11:11;;;;;;;2.37;2.07;;;;;;;7.93;94.89;100216.50;5013680;28;20224;-76
2020/12/14 10:13:37;;;;;;;2.83;1.77;;;;;;;7.94;95.50;100211.88;4997084;28;20196;-76
2020/12/14 10:16:06;;;;;;;4.17;1.70;;;;;;;7.82;93.78;100216.69;4995779;28;20220;-74
2020/12/14 10:18:34;;;;;;;3.83;1.90;;;;;;;7.59;96.58;100214.44;4998513;28;20188;-75
2020/12/14 10:21:02;;;;;;;4.03;1.97;;;;;;;7.69;96.95;100206.38;4996937;28;20222;-75
2020/12/14 10:23:29;;;;;;;3.17;1.90;;;;;;;7.98;96.29;100202.16;5013578;28;20189;-76
2020/12/14 10:25:58;;;;;;;2.57;1.70;;;;;;;7.77;97.01;100204.00;5029275;28;20216;-76
2020/12/14 10:28:23;;;;;;;2.77;1.80;;;;;;;7.80;97.78;100194.53;5002036;28;20644;-76
2020/12/14 10:30:49;;;;;;;2.77;1.70;;;;;;;7.78;97.88;100196.69;4989003;28;20221;-75
2020/12/14 10:33:18;;;;;;;4.57;1.77;;;;;;;7.95;96.91;100189.16;5011019;28;20192;-76
2020/12/14 10:35:47;;;;;;;2.97;1.87;;;;;;;7.75;97.79;100194.53;5011044;28;20240;-74
2020/12/14 10:38:12;;;;;;;3.40;1.60;;;;;;;7.88;97.92;100191.34;4994978;28;20188;-75
2020/12/14 10:40:38;;;;;;;3.37;2.00;;;;;;;8.08;97.46;100193.00;5009960;28;20243;-75
2020/12/14 10:43:03;;;;;;;3.30;1.80;;;;;;;7.87;97.02;100200.50;5026301;28;20181;-75
2020/12/14 10:45:34;;;;;;;2.77;1.87;;;;;;;7.85;98.00;100200.75;4993021;28;20233;-74
2020/12/14 10:48:04;;;;;;;2.80;1.73;;;;;;;7.98;97.38;100199.47;5010426;28;20235;-74
2020/12/14 10:50:30;;;;;;;2.43;1.53;;;;;;;8.03;96.93;100204.88;5025206;28;20870;-75
2020/12/14 10:52:58;;;;;;;2.97;1.37;;;;;;;7.86;98.26;100202.41;5010000;28;20189;-75
2020/12/14 10:55:26;;;;;;;3.27;1.50;;;;;;;7.93;98.08;100200.28;5010863;28;20216;-74
2020/12/14 10:57:54;;;;;;;2.50;1.70;;;;;;;7.97;98.33;100195.16;5004941;28;20193;-76
2020/12/14 11:00:23;;;;;;;3.77;1.70;;;;;;;7.93;99.13;100205.69;5017261;28;20209;-75
2020/12/14 11:02:51;;;;;;;2.83;1.50;;;;;;;8.07;98.99;100195.97;4978291;28;20236;-76
2020/12/14 11:05:17;;;;;;;2.37;1.60;;;;;;;8.13;99.53;100184.94;4976170;28;20209;-75
2020/12/14 11:07:44;;;;;;;3.23;1.60;;;;;;;8.03;99.77;100189.47;4979698;28;20200;-75
2020/12/14 11:10:12;;;;;;;2.80;1.50;;;;;;;8.03;100.00;100188.66;4992484;28;20208;-77
2020/12/14 11:12:38;;;;;;;2.13;1.60;;;;;;;8.06;100.00;100186.25;4992841;28;20316;-77
2020/12/14 11:15:12;;;;;;;2.67;1.40;;;;;;;8.06;100.00;100194.34;4992394;28;20257;-76
2020/12/14 11:17:37;;;;;;;3.27;1.73;;;;;;;8.03;100.00;100195.69;5009714;28;20185;-76
2020/12/14 11:20:08;;;;;;;2.57;1.70;;;;;;;8.02;100.00;100198.66;4993285;28;20189;-75
2020/12/14 11:22:38;;;;;;;2.73;1.87;;;;;;;8.22;100.00;100199.56;4977636;28;20698;-75
2020/12/14 11:25:05;;;;;;;3.03;1.43;;;;;;;8.26;100.00;100184.41;4976199;28;20596;-75
2020/12/14 11:27:30;;;;;;;2.17;1.80;;;;;;;8.22;100.00;100198.72;4992621;28;20189;-75